sensor_id;sensor_type;location;lat;lon;timestamp;temperature;humidity
12329;DHT22;6230;52.390;10.256;2022-12-18T00:01:50;-0.30;64.30
12329;DHT22;6230;52.390;10.256;2022-12-18T00:04:24;-0.30;64.20
12329;DHT22;6230;52.390;10.256;2022-12-18T00:06:50;-0.30;64.00
12329;DHT22;6230;52.390;10.256;2022-12-18T00:09:16;-0.30;63.90
12329;DHT22;6230;52.390;10.256;2022-12-18T00:11:42;-0.30;64.00
12329;DHT22;6230;52.390;10.256;2022-12-18T00:14:10;-0.30;63.90
12329;DHT22;6230;52.390;10.256;2022-12-18T00:16:36;-0.40;63.80
12329;DHT22;6230;52.390;10.256;2022-12-18T00:19:03;-0.40;63.80
12329;DHT22;6230;52.390;10.256;2022-12-18T00:21:30;-0.50;63.90
12329;DHT22;6230;52.390;10.256;2022-12-18T00:23:56;-0.50;64.00
12329;DHT22;6230;52.390;10.256;2022-12-18T00:26:28;-0.60;64.00
12329;DHT22;6230;52.390;10.256;2022-12-18T00:28:54;-0.60;64.10
12329;DHT22;6230;52.390;10.256;2022-12-18T00:31:22;-0.60;64.00
12329;DHT22;6230;52.390;10.256;2022-12-18T00:33:49;-0.60;64.10
12329;DHT22;6230;52.390;10.256;2022-12-18T00:36:20;-0.70;64.10
12329;DHT22;6230;52.390;10.256;2022-12-18T00:38:46;-0.70;64.10
12329;DHT22;6230;52.390;10.256;2022-12-18T00:41:14;-0.70;64.00
12329;DHT22;6230;52.390;10.256;2022-12-18T00:44:00;-0.70;64.10
12329;DHT22;6230;52.390;10.256;2022-12-18T00:46:25;-0.70;64.10
12329;DHT22;6230;52.390;10.256;2022-12-18T00:48:51;-0.70;64.00
12329;DHT22;6230;52.390;10.256;2022-12-18T00:51:17;-0.70;63.90
12329;DHT22;6230;52.390;10.256;2022-12-18T00:53:42;-0.60;64.00
12329;DHT22;6230;52.390;10.256;2022-12-18T00:56:08;-0.60;63.80
12329;DHT22;6230;52.390;10.256;2022-12-18T00:58:36;-0.60;63.80
12329;DHT22;6230;52.390;10.256;2022-12-18T01:01:04;-0.60;63.70
12329;DHT22;6230;52.390;10.256;2022-12-18T01:03:30;-0.60;63.70
12329;DHT22;6230;52.390;10.256;2022-12-18T01:05:56;-0.70;63.70
12329;DHT22;6230;52.390;10.256;2022-12-18T01:08:21;-0.80;63.80
12329;DHT22;6230;52.390;10.256;2022-12-18T01:10:47;-0.80;63.90
12329;DHT22;6230;52.390;10.256;2022-12-18T01:13:13;-0.90;63.90
12329;DHT22;6230;52.390;10.256;2022-12-18T01:15:39;-0.90;64.00
12329;DHT22;6230;52.390;10.256;2022-12-18T01:18:06;-1.00;64.00
12329;DHT22;6230;52.390;10.256;2022-12-18T01:20:33;-1.00;64.10
12329;DHT22;6230;52.390;10.256;2022-12-18T01:22:58;-1.00;64.10
12329;DHT22;6230;52.390;10.256;2022-12-18T01:25:24;-1.10;64.10
12329;DHT22;6230;52.390;10.256;2022-12-18T01:27:50;-1.10;64.20
12329;DHT22;6230;52.390;10.256;2022-12-18T01:30:16;-1.10;64.30
12329;DHT22;6230;52.390;10.256;2022-12-18T01:32:41;-1.20;64.30
12329;DHT22;6230;52.390;10.256;2022-12-18T01:35:07;-1.30;64.40
12329;DHT22;6230;52.390;10.256;2022-12-18T01:37:33;-1.30;64.60
12329;DHT22;6230;52.390;10.256;2022-12-18T01:39:58;-1.40;64.70
12329;DHT22;6230;52.390;10.256;2022-12-18T01:42:24;-1.40;64.90
12329;DHT22;6230;52.390;10.256;2022-12-18T01:44:55;-1.50;64.90
12329;DHT22;6230;52.390;10.256;2022-12-18T01:47:45;-1.40;65.00
12329;DHT22;6230;52.390;10.256;2022-12-18T01:52:46;-1.40;64.90
12329;DHT22;6230;52.390;10.256;2022-12-18T01:55:16;-1.40;64.90
12329;DHT22;6230;52.390;10.256;2022-12-18T01:57:42;-1.40;64.90
12329;DHT22;6230;52.390;10.256;2022-12-18T02:00:11;-1.40;64.90
12329;DHT22;6230;52.390;10.256;2022-12-18T02:02:37;-1.40;64.90
12329;DHT22;6230;52.390;10.256;2022-12-18T02:05:04;-1.40;64.80
12329;DHT22;6230;52.390;10.256;2022-12-18T02:10:20;-1.30;64.70
12329;DHT22;6230;52.390;10.256;2022-12-18T02:13:13;-1.30;64.60
12329;DHT22;6230;52.390;10.256;2022-12-18T02:16:01;-1.30;64.40
12329;DHT22;6230;52.390;10.256;2022-12-18T02:18:33;-1.20;64.30
12329;DHT22;6230;52.390;10.256;2022-12-18T02:21:20;-1.20;64.30
12329;DHT22;6230;52.390;10.256;2022-12-18T02:24:10;-1.20;64.20
12329;DHT22;6230;52.390;10.256;2022-12-18T02:26:49;-1.20;64.20
12329;DHT22;6230;52.390;10.256;2022-12-18T02:29:20;-1.20;64.20
12329;DHT22;6230;52.390;10.256;2022-12-18T02:31:51;-1.20;64.20
12329;DHT22;6230;52.390;10.256;2022-12-18T02:34:19;-1.20;64.00
12329;DHT22;6230;52.390;10.256;2022-12-18T02:36:48;-1.20;64.00
12329;DHT22;6230;52.390;10.256;2022-12-18T02:39:16;-1.20;63.90
12329;DHT22;6230;52.390;10.256;2022-12-18T02:41:42;-1.20;63.90
12329;DHT22;6230;52.390;10.256;2022-12-18T02:44:10;-1.30;63.80
12329;DHT22;6230;52.390;10.256;2022-12-18T02:46:39;-1.30;64.00
12329;DHT22;6230;52.390;10.256;2022-12-18T02:54:57;-1.30;63.80
12329;DHT22;6230;52.390;10.256;2022-12-18T02:57:39;-1.20;63.70
12329;DHT22;6230;52.390;10.256;2022-12-18T03:03:06;-1.40;63.50
12329;DHT22;6230;52.390;10.256;2022-12-18T03:05:37;-1.50;63.50
12329;DHT22;6230;52.390;10.256;2022-12-18T03:08:08;-1.60;63.70
12329;DHT22;6230;52.390;10.256;2022-12-18T03:10:40;-1.80;63.90
12329;DHT22;6230;52.390;10.256;2022-12-18T03:13:15;-1.90;64.20
12329;DHT22;6230;52.390;10.256;2022-12-18T03:15:45;-2.00;64.60
12329;DHT22;6230;52.390;10.256;2022-12-18T03:18:18;-2.10;65.00
12329;DHT22;6230;52.390;10.256;2022-12-18T03:20:47;-2.30;65.30
12329;DHT22;6230;52.390;10.256;2022-12-18T03:23:17;-2.40;65.50
12329;DHT22;6230;52.390;10.256;2022-12-18T03:25:45;-2.40;65.80
12329;DHT22;6230;52.390;10.256;2022-12-18T03:28:19;-2.50;66.00
12329;DHT22;6230;52.390;10.256;2022-12-18T03:30:47;-2.50;66.10
12329;DHT22;6230;52.390;10.256;2022-12-18T03:33:24;-2.60;66.30
12329;DHT22;6230;52.390;10.256;2022-12-18T03:35:51;-2.60;66.30
12329;DHT22;6230;52.390;10.256;2022-12-18T03:38:17;-2.60;66.40
12329;DHT22;6230;52.390;10.256;2022-12-18T03:43:15;-2.60;66.50
12329;DHT22;6230;52.390;10.256;2022-12-18T03:45:54;-2.60;66.50
12329;DHT22;6230;52.390;10.256;2022-12-18T03:48:32;-2.60;66.40
12329;DHT22;6230;52.390;10.256;2022-12-18T03:51:11;-2.60;66.30
12329;DHT22;6230;52.390;10.256;2022-12-18T03:53:58;-2.60;66.30
12329;DHT22;6230;52.390;10.256;2022-12-18T03:56:30;-2.60;66.30
12329;DHT22;6230;52.390;10.256;2022-12-18T03:58:57;-2.60;66.30
12329;DHT22;6230;52.390;10.256;2022-12-18T04:01:32;-2.60;66.60
12329;DHT22;6230;52.390;10.256;2022-12-18T04:04:00;-2.60;67.50
12329;DHT22;6230;52.390;10.256;2022-12-18T04:06:26;-2.60;66.70
12329;DHT22;6230;52.390;10.256;2022-12-18T04:08:53;-2.60;66.70
12329;DHT22;6230;52.390;10.256;2022-12-18T04:11:19;-2.70;66.70
12329;DHT22;6230;52.390;10.256;2022-12-18T04:13:44;-2.60;66.80
12329;DHT22;6230;52.390;10.256;2022-12-18T04:16:10;-2.70;66.70
12329;DHT22;6230;52.390;10.256;2022-12-18T04:18:35;-2.70;66.70
12329;DHT22;6230;52.390;10.256;2022-12-18T04:21:02;-2.70;66.60
12329;DHT22;6230;52.390;10.256;2022-12-18T04:23:27;-2.70;66.70
12329;DHT22;6230;52.390;10.256;2022-12-18T04:25:53;-2.70;66.60
12329;DHT22;6230;52.390;10.256;2022-12-18T04:28:19;-2.70;66.70
12329;DHT22;6230;52.390;10.256;2022-12-18T04:30:47;-2.70;66.60
12329;DHT22;6230;52.390;10.256;2022-12-18T04:33:16;-2.70;66.60
12329;DHT22;6230;52.390;10.256;2022-12-18T04:35:42;-2.70;66.60
12329;DHT22;6230;52.390;10.256;2022-12-18T04:38:09;-2.70;66.60
12329;DHT22;6230;52.390;10.256;2022-12-18T04:40:36;-2.70;66.60
12329;DHT22;6230;52.390;10.256;2022-12-18T04:43:02;-2.70;66.60
12329;DHT22;6230;52.390;10.256;2022-12-18T04:45:27;-2.70;66.50
12329;DHT22;6230;52.390;10.256;2022-12-18T04:47:53;-2.70;66.50
12329;DHT22;6230;52.390;10.256;2022-12-18T04:50:19;-2.70;66.40
12329;DHT22;6230;52.390;10.256;2022-12-18T04:52:44;-2.70;66.40
12329;DHT22;6230;52.390;10.256;2022-12-18T04:55:10;-2.70;66.30
12329;DHT22;6230;52.390;10.256;2022-12-18T04:57:35;-2.80;66.20
12329;DHT22;6230;52.390;10.256;2022-12-18T05:00:01;-2.80;66.30
12329;DHT22;6230;52.390;10.256;2022-12-18T05:02:27;-2.90;67.20
12329;DHT22;6230;52.390;10.256;2022-12-18T05:04:52;-2.90;66.60
12329;DHT22;6230;52.390;10.256;2022-12-18T05:07:18;-3.00;66.70
12329;DHT22;6230;52.390;10.256;2022-12-18T05:09:43;-3.00;66.80
12329;DHT22;6230;52.390;10.256;2022-12-18T05:12:09;-3.00;67.80
12329;DHT22;6230;52.390;10.256;2022-12-18T05:14:34;-3.10;67.10
12329;DHT22;6230;52.390;10.256;2022-12-18T05:17:00;-3.00;67.20
12329;DHT22;6230;52.390;10.256;2022-12-18T05:19:25;-3.10;67.20
12329;DHT22;6230;52.390;10.256;2022-12-18T05:21:51;-3.10;67.10
12329;DHT22;6230;52.390;10.256;2022-12-18T05:24:16;-3.10;67.10
12329;DHT22;6230;52.390;10.256;2022-12-18T05:26:42;-3.00;66.90
12329;DHT22;6230;52.390;10.256;2022-12-18T05:29:08;-3.00;66.70
12329;DHT22;6230;52.390;10.256;2022-12-18T05:31:33;-2.90;66.60
12329;DHT22;6230;52.390;10.256;2022-12-18T05:33:59;-2.90;66.40
12329;DHT22;6230;52.390;10.256;2022-12-18T05:36:24;-2.80;66.30
12329;DHT22;6230;52.390;10.256;2022-12-18T05:38:50;-2.80;66.20
12329;DHT22;6230;52.390;10.256;2022-12-18T05:41:15;-2.80;65.90
12329;DHT22;6230;52.390;10.256;2022-12-18T05:43:41;-2.80;65.90
12329;DHT22;6230;52.390;10.256;2022-12-18T05:46:11;-2.70;65.90
12329;DHT22;6230;52.390;10.256;2022-12-18T05:48:36;-2.70;66.20
12329;DHT22;6230;52.390;10.256;2022-12-18T05:51:13;-2.60;65.60
12329;DHT22;6230;52.390;10.256;2022-12-18T05:53:40;-2.50;65.50
12329;DHT22;6230;52.390;10.256;2022-12-18T05:56:09;-2.50;65.20
12329;DHT22;6230;52.390;10.256;2022-12-18T05:58:35;-2.50;65.10
12329;DHT22;6230;52.390;10.256;2022-12-18T06:01:16;-2.60;65.00
12329;DHT22;6230;52.390;10.256;2022-12-18T06:03:42;-2.60;65.20
12329;DHT22;6230;52.390;10.256;2022-12-18T06:06:16;-2.60;65.20
12329;DHT22;6230;52.390;10.256;2022-12-18T06:08:42;-2.50;65.10
12329;DHT22;6230;52.390;10.256;2022-12-18T06:11:08;-2.50;65.00
12329;DHT22;6230;52.390;10.256;2022-12-18T06:13:33;-2.40;64.80
12329;DHT22;6230;52.390;10.256;2022-12-18T06:16:02;-2.30;64.70
12329;DHT22;6230;52.390;10.256;2022-12-18T06:18:28;-2.30;64.50
12329;DHT22;6230;52.390;10.256;2022-12-18T06:20:55;-2.30;64.30
12329;DHT22;6230;52.390;10.256;2022-12-18T06:23:22;-2.30;64.20
12329;DHT22;6230;52.390;10.256;2022-12-18T06:25:47;-2.40;63.90
12329;DHT22;6230;52.390;10.256;2022-12-18T06:28:13;-2.40;64.00
12329;DHT22;6230;52.390;10.256;2022-12-18T06:30:38;-2.60;64.00
12329;DHT22;6230;52.390;10.256;2022-12-18T06:33:04;-2.70;64.10
12329;DHT22;6230;52.390;10.256;2022-12-18T06:35:29;-2.80;64.30
12329;DHT22;6230;52.390;10.256;2022-12-18T06:37:55;-2.90;64.40
12329;DHT22;6230;52.390;10.256;2022-12-18T06:40:20;-3.00;64.70
12329;DHT22;6230;52.390;10.256;2022-12-18T06:42:46;-3.10;65.00
12329;DHT22;6230;52.390;10.256;2022-12-18T06:45:14;-3.20;65.30
12329;DHT22;6230;52.390;10.256;2022-12-18T06:47:40;-3.30;65.60
12329;DHT22;6230;52.390;10.256;2022-12-18T06:50:06;-3.40;65.90
12329;DHT22;6230;52.390;10.256;2022-12-18T06:52:32;-3.50;66.20
12329;DHT22;6230;52.390;10.256;2022-12-18T06:54:58;-3.50;66.50
12329;DHT22;6230;52.390;10.256;2022-12-18T06:57:23;-3.60;66.60
12329;DHT22;6230;52.390;10.256;2022-12-18T06:59:49;-3.60;66.80
12329;DHT22;6230;52.390;10.256;2022-12-18T07:02:14;-3.70;66.90
12329;DHT22;6230;52.390;10.256;2022-12-18T07:04:40;-3.70;66.90
12329;DHT22;6230;52.390;10.256;2022-12-18T07:07:05;-3.70;67.00
12329;DHT22;6230;52.390;10.256;2022-12-18T07:09:31;-3.70;67.10
12329;DHT22;6230;52.390;10.256;2022-12-18T07:11:57;-3.80;67.90
12329;DHT22;6230;52.390;10.256;2022-12-18T07:14:22;-3.80;67.30
12329;DHT22;6230;52.390;10.256;2022-12-18T07:16:48;-3.80;67.50
12329;DHT22;6230;52.390;10.256;2022-12-18T07:19:13;-3.90;67.60
12329;DHT22;6230;52.390;10.256;2022-12-18T07:21:39;-3.90;67.70
12329;DHT22;6230;52.390;10.256;2022-12-18T07:24:05;-3.80;67.90
12329;DHT22;6230;52.390;10.256;2022-12-18T07:26:30;-3.80;68.00
12329;DHT22;6230;52.390;10.256;2022-12-18T07:28:57;-3.80;67.90
12329;DHT22;6230;52.390;10.256;2022-12-18T07:31:24;-3.80;68.00
12329;DHT22;6230;52.390;10.256;2022-12-18T07:33:50;-3.80;68.00
12329;DHT22;6230;52.390;10.256;2022-12-18T07:36:16;-3.80;67.90
12329;DHT22;6230;52.390;10.256;2022-12-18T07:38:42;-3.70;67.90
12329;DHT22;6230;52.390;10.256;2022-12-18T07:41:10;-3.70;67.90
12329;DHT22;6230;52.390;10.256;2022-12-18T07:43:37;-3.70;68.00
12329;DHT22;6230;52.390;10.256;2022-12-18T07:46:03;-3.80;68.00
12329;DHT22;6230;52.390;10.256;2022-12-18T07:48:30;-3.80;68.10
12329;DHT22;6230;52.390;10.256;2022-12-18T07:51:00;-3.80;68.10
12329;DHT22;6230;52.390;10.256;2022-12-18T07:53:26;-3.80;68.20
12329;DHT22;6230;52.390;10.256;2022-12-18T07:55:58;-3.80;68.30
12329;DHT22;6230;52.390;10.256;2022-12-18T07:58:24;-3.80;68.30
12329;DHT22;6230;52.390;10.256;2022-12-18T08:00:50;-3.80;68.40
12329;DHT22;6230;52.390;10.256;2022-12-18T08:03:15;-3.70;68.50
12329;DHT22;6230;52.390;10.256;2022-12-18T08:05:41;-3.70;68.50
12329;DHT22;6230;52.390;10.256;2022-12-18T08:08:07;-3.70;68.50
12329;DHT22;6230;52.390;10.256;2022-12-18T08:10:32;-3.70;68.50
12329;DHT22;6230;52.390;10.256;2022-12-18T08:12:58;-3.70;68.50
12329;DHT22;6230;52.390;10.256;2022-12-18T08:15:23;-3.70;68.60
12329;DHT22;6230;52.390;10.256;2022-12-18T08:17:49;-3.70;68.60
12329;DHT22;6230;52.390;10.256;2022-12-18T08:20:14;-3.70;68.60
12329;DHT22;6230;52.390;10.256;2022-12-18T08:22:41;-3.70;68.60
12329;DHT22;6230;52.390;10.256;2022-12-18T08:25:08;-3.60;68.70
12329;DHT22;6230;52.390;10.256;2022-12-18T08:27:33;-3.60;68.70
12329;DHT22;6230;52.390;10.256;2022-12-18T08:29:59;-3.60;68.70
12329;DHT22;6230;52.390;10.256;2022-12-18T08:32:26;-3.60;68.80
12329;DHT22;6230;52.390;10.256;2022-12-18T08:34:51;-3.60;68.90
12329;DHT22;6230;52.390;10.256;2022-12-18T08:37:17;-3.60;69.00
12329;DHT22;6230;52.390;10.256;2022-12-18T08:39:43;-3.60;69.20
12329;DHT22;6230;52.390;10.256;2022-12-18T08:42:09;-3.60;69.40
12329;DHT22;6230;52.390;10.256;2022-12-18T08:44:52;-3.60;69.40
12329;DHT22;6230;52.390;10.256;2022-12-18T08:47:18;-3.60;69.40
12329;DHT22;6230;52.390;10.256;2022-12-18T08:49:44;-3.50;69.40
12329;DHT22;6230;52.390;10.256;2022-12-18T08:52:09;-3.50;69.30
12329;DHT22;6230;52.390;10.256;2022-12-18T08:54:35;-3.40;69.20
12329;DHT22;6230;52.390;10.256;2022-12-18T08:57:00;-3.30;69.00
12329;DHT22;6230;52.390;10.256;2022-12-18T08:59:29;-3.20;69.00
12329;DHT22;6230;52.390;10.256;2022-12-18T09:01:54;-3.20;68.90
12329;DHT22;6230;52.390;10.256;2022-12-18T09:04:21;-3.20;68.90
12329;DHT22;6230;52.390;10.256;2022-12-18T09:06:46;-3.20;68.90
12329;DHT22;6230;52.390;10.256;2022-12-18T09:09:12;-3.20;68.90
12329;DHT22;6230;52.390;10.256;2022-12-18T09:11:38;-3.20;69.00
12329;DHT22;6230;52.390;10.256;2022-12-18T09:14:03;-3.10;69.20
12329;DHT22;6230;52.390;10.256;2022-12-18T09:16:29;-3.10;69.10
12329;DHT22;6230;52.390;10.256;2022-12-18T09:18:55;-3.00;69.30
12329;DHT22;6230;52.390;10.256;2022-12-18T09:21:26;-3.00;69.20
12329;DHT22;6230;52.390;10.256;2022-12-18T09:23:54;-2.90;69.30
12329;DHT22;6230;52.390;10.256;2022-12-18T09:26:20;-2.90;69.30
12329;DHT22;6230;52.390;10.256;2022-12-18T09:28:46;-2.80;70.00
12329;DHT22;6230;52.390;10.256;2022-12-18T09:31:17;-2.70;69.40
12329;DHT22;6230;52.390;10.256;2022-12-18T09:33:42;-2.70;69.40
12329;DHT22;6230;52.390;10.256;2022-12-18T09:36:10;-2.60;69.40
12329;DHT22;6230;52.390;10.256;2022-12-18T09:38:36;-2.60;69.40
12329;DHT22;6230;52.390;10.256;2022-12-18T09:43:43;-2.50;69.50
12329;DHT22;6230;52.390;10.256;2022-12-18T09:46:20;-2.40;69.70
12329;DHT22;6230;52.390;10.256;2022-12-18T09:48:52;-2.40;69.60
12329;DHT22;6230;52.390;10.256;2022-12-18T09:51:36;-2.30;69.60
12329;DHT22;6230;52.390;10.256;2022-12-18T09:54:16;-2.20;69.50
12329;DHT22;6230;52.390;10.256;2022-12-18T09:56:44;-2.00;69.60
12329;DHT22;6230;52.390;10.256;2022-12-18T10:01:57;-1.90;69.30
12329;DHT22;6230;52.390;10.256;2022-12-18T10:04:23;-1.90;69.20
12329;DHT22;6230;52.390;10.256;2022-12-18T10:06:57;-1.70;70.20
12329;DHT22;6230;52.390;10.256;2022-12-18T10:09:45;-1.60;69.70
12329;DHT22;6230;52.390;10.256;2022-12-18T10:12:30;-1.40;70.10
12329;DHT22;6230;52.390;10.256;2022-12-18T10:15:16;-1.20;70.10
12329;DHT22;6230;52.390;10.256;2022-12-18T10:18:20;-0.90;70.00
12329;DHT22;6230;52.390;10.256;2022-12-18T10:20:51;-0.60;69.50
12329;DHT22;6230;52.390;10.256;2022-12-18T10:23:49;-0.30;69.40
12329;DHT22;6230;52.390;10.256;2022-12-18T10:26:17;-0.10;69.10
12329;DHT22;6230;52.390;10.256;2022-12-18T10:28:43;0.10;68.30
12329;DHT22;6230;52.390;10.256;2022-12-18T10:31:18;0.10;67.80
12329;DHT22;6230;52.390;10.256;2022-12-18T10:33:44;0.20;67.60
12329;DHT22;6230;52.390;10.256;2022-12-18T10:36:10;0.30;67.70
12329;DHT22;6230;52.390;10.256;2022-12-18T10:38:35;0.30;67.90
12329;DHT22;6230;52.390;10.256;2022-12-18T10:41:04;0.30;66.50
12329;DHT22;6230;52.390;10.256;2022-12-18T10:43:35;0.30;66.60
12329;DHT22;6230;52.390;10.256;2022-12-18T10:51:06;0.50;66.30
12329;DHT22;6230;52.390;10.256;2022-12-18T10:53:34;0.50;65.90
12329;DHT22;6230;52.390;10.256;2022-12-18T10:56:02;0.50;65.50
12329;DHT22;6230;52.390;10.256;2022-12-18T10:58:37;0.50;65.80
12329;DHT22;6230;52.390;10.256;2022-12-18T11:01:17;0.60;66.40
12329;DHT22;6230;52.390;10.256;2022-12-18T11:06:22;1.00;66.10
12329;DHT22;6230;52.390;10.256;2022-12-18T11:09:19;1.00;65.00
12329;DHT22;6230;52.390;10.256;2022-12-18T11:11:54;0.90;64.50
12329;DHT22;6230;52.390;10.256;2022-12-18T11:14:30;0.80;64.50
12329;DHT22;6230;52.390;10.256;2022-12-18T11:16:58;0.80;65.10
12329;DHT22;6230;52.390;10.256;2022-12-18T11:19:34;1.00;65.70
12329;DHT22;6230;52.390;10.256;2022-12-18T11:25:18;1.10;66.10
12329;DHT22;6230;52.390;10.256;2022-12-18T11:28:26;1.30;65.40
12329;DHT22;6230;52.390;10.256;2022-12-18T11:33:49;1.70;64.90
12329;DHT22;6230;52.390;10.256;2022-12-18T11:36:16;1.70;64.10
12329;DHT22;6230;52.390;10.256;2022-12-18T11:38:43;1.60;64.30
12329;DHT22;6230;52.390;10.256;2022-12-18T11:44:22;1.80;65.10
12329;DHT22;6230;52.390;10.256;2022-12-18T11:46:56;2.00;65.60
12329;DHT22;6230;52.390;10.256;2022-12-18T11:49:28;2.20;65.30
12329;DHT22;6230;52.390;10.256;2022-12-18T11:52:05;2.40;65.20
12329;DHT22;6230;52.390;10.256;2022-12-18T11:54:34;2.50;63.90
12329;DHT22;6230;52.390;10.256;2022-12-18T11:57:09;2.50;63.40
12329;DHT22;6230;52.390;10.256;2022-12-18T12:00:02;2.50;63.40
12329;DHT22;6230;52.390;10.256;2022-12-18T12:10:54;2.20;61.80
12329;DHT22;6230;52.390;10.256;2022-12-18T12:19:40;2.90;62.80
12329;DHT22;6230;52.390;10.256;2022-12-18T12:27:54;3.90;63.30
12329;DHT22;6230;52.390;10.256;2022-12-18T12:33:22;4.90;62.80
12329;DHT22;6230;52.390;10.256;2022-12-18T12:38:52;5.40;60.40
12329;DHT22;6230;52.390;10.256;2022-12-18T12:41:23;5.20;59.80
12329;DHT22;6230;52.390;10.256;2022-12-18T12:44:16;5.00;60.30
12329;DHT22;6230;52.390;10.256;2022-12-18T12:46:44;4.80;60.90
12329;DHT22;6230;52.390;10.256;2022-12-18T12:49:17;4.70;61.00
12329;DHT22;6230;52.390;10.256;2022-12-18T12:51:53;4.50;60.80
12329;DHT22;6230;52.390;10.256;2022-12-18T12:54:24;4.20;60.80
12329;DHT22;6230;52.390;10.256;2022-12-18T13:08:03;3.10;61.90
12329;DHT22;6230;52.390;10.256;2022-12-18T13:10:40;3.00;62.10
12329;DHT22;6230;52.390;10.256;2022-12-18T13:13:08;2.90;62.00
12329;DHT22;6230;52.390;10.256;2022-12-18T13:15:46;2.70;62.00
12329;DHT22;6230;52.390;10.256;2022-12-18T13:18:22;2.60;62.20
12329;DHT22;6230;52.390;10.256;2022-12-18T13:21:02;2.50;63.00
12329;DHT22;6230;52.390;10.256;2022-12-18T13:23:31;2.40;62.40
12329;DHT22;6230;52.390;10.256;2022-12-18T13:26:40;2.30;62.50
12329;DHT22;6230;52.390;10.256;2022-12-18T13:31:13;2.20;62.70
12329;DHT22;6230;52.390;10.256;2022-12-18T13:33:44;2.20;62.90
12329;DHT22;6230;52.390;10.256;2022-12-18T13:41:42;2.00;63.10
12329;DHT22;6230;52.390;10.256;2022-12-18T13:46:55;2.00;63.30
12329;DHT22;6230;52.390;10.256;2022-12-18T13:49:40;1.90;63.40
12329;DHT22;6230;52.390;10.256;2022-12-18T13:52:22;1.90;63.60
12329;DHT22;6230;52.390;10.256;2022-12-18T13:54:51;1.90;63.70
12329;DHT22;6230;52.390;10.256;2022-12-18T13:57:35;1.90;63.60
12329;DHT22;6230;52.390;10.256;2022-12-18T14:00:26;1.90;63.60
12329;DHT22;6230;52.390;10.256;2022-12-18T14:02:54;1.90;63.70
12329;DHT22;6230;52.390;10.256;2022-12-18T14:05:24;1.90;63.70
12329;DHT22;6230;52.390;10.256;2022-12-18T14:07:51;1.80;63.70
12329;DHT22;6230;52.390;10.256;2022-12-18T14:10:17;1.80;63.80
12329;DHT22;6230;52.390;10.256;2022-12-18T14:12:50;1.80;63.80
12329;DHT22;6230;52.390;10.256;2022-12-18T14:15:32;1.80;63.90
12329;DHT22;6230;52.390;10.256;2022-12-18T14:20:46;1.80;64.00
12329;DHT22;6230;52.390;10.256;2022-12-18T14:23:32;1.80;64.10
12329;DHT22;6230;52.390;10.256;2022-12-18T14:25:59;1.80;64.10
12329;DHT22;6230;52.390;10.256;2022-12-18T14:28:25;1.70;64.20
12329;DHT22;6230;52.390;10.256;2022-12-18T14:30:52;1.70;64.30
12329;DHT22;6230;52.390;10.256;2022-12-18T14:33:20;1.60;64.40
12329;DHT22;6230;52.390;10.256;2022-12-18T14:35:56;1.60;64.50
12329;DHT22;6230;52.390;10.256;2022-12-18T14:38:29;1.60;64.60
12329;DHT22;6230;52.390;10.256;2022-12-18T14:41:02;1.60;64.70
12329;DHT22;6230;52.390;10.256;2022-12-18T14:43:32;1.60;64.70
12329;DHT22;6230;52.390;10.256;2022-12-18T14:45:58;1.60;64.70
12329;DHT22;6230;52.390;10.256;2022-12-18T14:51:03;1.60;64.60
12329;DHT22;6230;52.390;10.256;2022-12-18T14:53:56;1.60;64.60
12329;DHT22;6230;52.390;10.256;2022-12-18T14:56:27;1.60;64.70
12329;DHT22;6230;52.390;10.256;2022-12-18T14:59:01;1.60;64.80
12329;DHT22;6230;52.390;10.256;2022-12-18T15:01:34;1.50;64.80
12329;DHT22;6230;52.390;10.256;2022-12-18T15:04:02;1.50;64.90
12329;DHT22;6230;52.390;10.256;2022-12-18T15:08:56;1.40;65.10
12329;DHT22;6230;52.390;10.256;2022-12-18T15:14:42;1.30;65.20
12329;DHT22;6230;52.390;10.256;2022-12-18T15:17:19;1.20;65.30
12329;DHT22;6230;52.390;10.256;2022-12-18T15:19:46;1.20;65.20
12329;DHT22;6230;52.390;10.256;2022-12-18T15:24:50;1.10;65.00
12329;DHT22;6230;52.390;10.256;2022-12-18T15:32:36;1.00;64.60
12329;DHT22;6230;52.390;10.256;2022-12-18T15:35:08;1.00;64.50
12329;DHT22;6230;52.390;10.256;2022-12-18T15:37:38;1.00;64.60
12329;DHT22;6230;52.390;10.256;2022-12-18T15:40:04;1.00;64.50
12329;DHT22;6230;52.390;10.256;2022-12-18T15:42:30;1.00;64.40
12329;DHT22;6230;52.390;10.256;2022-12-18T15:45:14;1.00;64.50
12329;DHT22;6230;52.390;10.256;2022-12-18T15:47:40;1.00;64.50
12329;DHT22;6230;52.390;10.256;2022-12-18T15:50:07;1.00;64.40
12329;DHT22;6230;52.390;10.256;2022-12-18T15:52:39;1.00;64.40
12329;DHT22;6230;52.390;10.256;2022-12-18T15:55:14;0.90;64.30
12329;DHT22;6230;52.390;10.256;2022-12-18T15:57:58;0.90;64.40
12329;DHT22;6230;52.390;10.256;2022-12-18T16:00:24;0.90;64.30
12329;DHT22;6230;52.390;10.256;2022-12-18T16:02:49;0.90;64.20
12329;DHT22;6230;52.390;10.256;2022-12-18T16:05:17;0.90;64.20
12329;DHT22;6230;52.390;10.256;2022-12-18T16:07:43;0.90;64.30
12329;DHT22;6230;52.390;10.256;2022-12-18T16:10:09;0.90;64.20
12329;DHT22;6230;52.390;10.256;2022-12-18T16:12:35;0.90;64.10
12329;DHT22;6230;52.390;10.256;2022-12-18T16:15:01;0.90;64.10
12329;DHT22;6230;52.390;10.256;2022-12-18T16:17:26;0.90;64.00
12329;DHT22;6230;52.390;10.256;2022-12-18T16:19:52;0.80;63.90
12329;DHT22;6230;52.390;10.256;2022-12-18T16:22:20;0.80;63.90
12329;DHT22;6230;52.390;10.256;2022-12-18T16:24:47;0.80;63.90
12329;DHT22;6230;52.390;10.256;2022-12-18T16:27:12;0.80;63.80
12329;DHT22;6230;52.390;10.256;2022-12-18T16:29:38;0.80;64.00
12329;DHT22;6230;52.390;10.256;2022-12-18T16:32:03;0.70;63.90
12329;DHT22;6230;52.390;10.256;2022-12-18T16:34:31;0.70;63.90
12329;DHT22;6230;52.390;10.256;2022-12-18T16:36:59;0.70;64.00
12329;DHT22;6230;52.390;10.256;2022-12-18T16:39:25;0.60;64.00
12329;DHT22;6230;52.390;10.256;2022-12-18T16:41:51;0.60;64.10
12329;DHT22;6230;52.390;10.256;2022-12-18T16:44:18;0.60;64.20
12329;DHT22;6230;52.390;10.256;2022-12-18T16:46:45;0.60;64.20
12329;DHT22;6230;52.390;10.256;2022-12-18T16:49:12;0.60;64.20
12329;DHT22;6230;52.390;10.256;2022-12-18T16:51:38;0.50;64.20
12329;DHT22;6230;52.390;10.256;2022-12-18T16:54:04;0.50;64.20
12329;DHT22;6230;52.390;10.256;2022-12-18T16:56:30;0.50;64.20
12329;DHT22;6230;52.390;10.256;2022-12-18T16:58:58;0.50;64.30
12329;DHT22;6230;52.390;10.256;2022-12-18T17:01:25;0.50;64.30
12329;DHT22;6230;52.390;10.256;2022-12-18T17:03:52;0.50;64.10
12329;DHT22;6230;52.390;10.256;2022-12-18T17:06:20;0.50;64.10
12329;DHT22;6230;52.390;10.256;2022-12-18T17:08:45;0.50;64.20
12329;DHT22;6230;52.390;10.256;2022-12-18T17:11:11;0.40;64.90
12329;DHT22;6230;52.390;10.256;2022-12-18T17:13:36;0.40;64.10
12329;DHT22;6230;52.390;10.256;2022-12-18T17:16:06;0.50;64.20
12329;DHT22;6230;52.390;10.256;2022-12-18T17:18:32;0.50;64.10
12329;DHT22;6230;52.390;10.256;2022-12-18T17:21:03;0.50;64.00
12329;DHT22;6230;52.390;10.256;2022-12-18T17:23:29;0.50;64.00
12329;DHT22;6230;52.390;10.256;2022-12-18T17:25:56;0.50;64.00
12329;DHT22;6230;52.390;10.256;2022-12-18T17:28:22;0.50;64.00
12329;DHT22;6230;52.390;10.256;2022-12-18T17:30:48;0.40;64.00
12329;DHT22;6230;52.390;10.256;2022-12-18T17:33:14;0.40;64.10
12329;DHT22;6230;52.390;10.256;2022-12-18T17:35:39;0.40;64.10
12329;DHT22;6230;52.390;10.256;2022-12-18T17:38:05;0.40;64.10